Hanamaki Airport
RJSI : now visible

Airfield :











YOU CAN JOIN US ON...

 
LOGIN :

Register | Disclaimer

   EN    FR    IT 

 









Legend :    VFR   Marginal VFR   IFR   Intensive IFR   Very Intensive IFR
Visi :
Ceiling :
>= 8 km
>= 3000ft
5 to 8 km
1000 to 3000 ft
1500m to 5 km
500 to 1000 ft
800 to 1500m
200 to 500 ft
< 800m
< 200 ft
Symbols :   Thunderstorms  Fog  Heavy snow  Heavy precipitations  Wind > 20 kt






- Airport Elevation : 297 ft
- IATA code : HNA


RJSI - Hanamaki

CURRENT METAR :
  • 250800Z 30009KT 270V330 9999 FEW040 SCT/// M00/M09 Q1029

EXPIRED METARs :
  • 250700Z 29011KT 260V330 9999 FEW050 00/M09 Q1028
  • 250600Z 29013KT 240V330 9999 FEW050 01/M09 Q1028

TAF TAF RJSI
Valid from the 25 at 06:00 until the 26 at 12:00 UTC


250505Z 2506/2612 30010KT 9999 FEW030
BECMG 2508/2510 01005KT
BECMG 2603/2606 22004KT



MET'MAP, your aeronautical weather chart ! - Copyright ORBIFLY December 2007 - Disclaimer

ORBIFLY MET'MAP TEAM :

Programming & Development : Alexandra Zaïnal
Concept & original design : Baudouin d'Aumeries
Assistance for programming : Marc-Olivier Méhu
Technical & hardware support : Manuel Goepfert

Contact : metmap@orbifly.com




SOURCES & CREDITS :

   NOAA       Earth
Advisory